sensor_id;sensor_type;location;lat;lon;timestamp;temperature;humidity
56300;DHT22;42209;6.376;-10.782;2023-07-22T00:00:08;23.20;89.30
56300;DHT22;42209;6.376;-10.782;2023-07-22T00:02:36;22.90;80.80
56300;DHT22;42209;6.376;-10.782;2023-07-22T00:05:05;22.60;77.30
56300;DHT22;42209;6.376;-10.782;2023-07-22T00:07:34;22.50;75.60
56300;DHT22;42209;6.376;-10.782;2023-07-22T00:10:03;22.50;81.60
56300;DHT22;42209;6.376;-10.782;2023-07-22T00:12:33;22.60;84.40
56300;DHT22;42209;6.376;-10.782;2023-07-22T00:15:02;22.70;85.60
56300;DHT22;42209;6.376;-10.782;2023-07-22T00:17:30;22.80;86.60
56300;DHT22;42209;6.376;-10.782;2023-07-22T00:19:59;22.90;87.50
56300;DHT22;42209;6.376;-10.782;2023-07-22T00:22:28;23.00;88.40
56300;DHT22;42209;6.376;-10.782;2023-07-22T00:24:57;23.00;88.80
56300;DHT22;42209;6.376;-10.782;2023-07-22T00:27:25;23.10;89.20
56300;DHT22;42209;6.376;-10.782;2023-07-22T00:29:57;23.10;89.50
56300;DHT22;42209;6.376;-10.782;2023-07-22T00:32:28;23.20;89.70
56300;DHT22;42209;6.376;-10.782;2023-07-22T00:34:57;23.20;89.60
56300;DHT22;42209;6.376;-10.782;2023-07-22T00:37:25;23.00;81.10
56300;DHT22;42209;6.376;-10.782;2023-07-22T00:39:54;22.60;77.60
56300;DHT22;42209;6.376;-10.782;2023-07-22T00:42:22;22.40;75.10
56300;DHT22;42209;6.376;-10.782;2023-07-22T00:44:51;22.40;79.20
56300;DHT22;42209;6.376;-10.782;2023-07-22T00:47:20;22.50;83.50
56300;DHT22;42209;6.376;-10.782;2023-07-22T00:49:49;22.70;85.30
56300;DHT22;42209;6.376;-10.782;2023-07-22T00:52:20;22.70;86.60
56300;DHT22;42209;6.376;-10.782;2023-07-22T00:54:48;22.80;87.60
56300;DHT22;42209;6.376;-10.782;2023-07-22T00:57:16;22.90;88.40
56300;DHT22;42209;6.376;-10.782;2023-07-22T00:59:45;23.00;89.00
56300;DHT22;42209;6.376;-10.782;2023-07-22T01:02:15;23.00;89.30
56300;DHT22;42209;6.376;-10.782;2023-07-22T01:04:44;23.10;89.90
56300;DHT22;42209;6.376;-10.782;2023-07-22T01:07:12;23.20;90.20
56300;DHT22;42209;6.376;-10.782;2023-07-22T01:09:42;23.20;90.40
56300;DHT22;42209;6.376;-10.782;2023-07-22T01:12:11;23.20;90.30
56300;DHT22;42209;6.376;-10.782;2023-07-22T01:14:41;23.10;84.20
56300;DHT22;42209;6.376;-10.782;2023-07-22T01:17:10;22.80;79.80
56300;DHT22;42209;6.376;-10.782;2023-07-22T01:19:40;22.50;77.80
56300;DHT22;42209;6.376;-10.782;2023-07-22T01:22:15;22.50;83.40
56300;DHT22;42209;6.376;-10.782;2023-07-22T01:24:45;22.70;85.90
56300;DHT22;42209;6.376;-10.782;2023-07-22T01:27:15;22.80;87.70
56300;DHT22;42209;6.376;-10.782;2023-07-22T01:29:43;22.90;88.90
56300;DHT22;42209;6.376;-10.782;2023-07-22T01:32:11;22.90;89.80
56300;DHT22;42209;6.376;-10.782;2023-07-22T01:34:39;23.00;90.30
56300;DHT22;42209;6.376;-10.782;2023-07-22T01:37:08;23.00;90.50
56300;DHT22;42209;6.376;-10.782;2023-07-22T01:39:36;23.10;91.00
56300;DHT22;42209;6.376;-10.782;2023-07-22T01:42:05;23.10;91.20
56300;DHT22;42209;6.376;-10.782;2023-07-22T01:44:33;23.20;91.30
56300;DHT22;42209;6.376;-10.782;2023-07-22T01:47:03;23.00;85.60
56300;DHT22;42209;6.376;-10.782;2023-07-22T01:49:31;22.80;81.50
56300;DHT22;42209;6.376;-10.782;2023-07-22T01:52:00;22.50;78.30
56300;DHT22;42209;6.376;-10.782;2023-07-22T01:54:28;22.40;79.00
56300;DHT22;42209;6.376;-10.782;2023-07-22T01:56:57;22.50;85.20
56300;DHT22;42209;6.376;-10.782;2023-07-22T01:59:25;22.60;86.70
56300;DHT22;42209;6.376;-10.782;2023-07-22T02:01:54;22.70;87.80
56300;DHT22;42209;6.376;-10.782;2023-07-22T02:04:22;22.80;88.60
56300;DHT22;42209;6.376;-10.782;2023-07-22T02:06:51;22.90;89.40
56300;DHT22;42209;6.376;-10.782;2023-07-22T02:09:19;22.90;90.00
56300;DHT22;42209;6.376;-10.782;2023-07-22T02:11:48;23.00;90.30
56300;DHT22;42209;6.376;-10.782;2023-07-22T02:14:16;23.10;90.60
56300;DHT22;42209;6.376;-10.782;2023-07-22T02:16:45;23.10;90.70
56300;DHT22;42209;6.376;-10.782;2023-07-22T02:19:14;23.10;90.90
56300;DHT22;42209;6.376;-10.782;2023-07-22T02:21:42;23.20;90.90
56300;DHT22;42209;6.376;-10.782;2023-07-22T02:24:11;23.20;90.40
56300;DHT22;42209;6.376;-10.782;2023-07-22T02:26:39;22.90;83.10
56300;DHT22;42209;6.376;-10.782;2023-07-22T02:29:08;22.70;79.20
56300;DHT22;42209;6.376;-10.782;2023-07-22T02:31:36;22.50;76.60
56300;DHT22;42209;6.376;-10.782;2023-07-22T02:34:04;22.40;79.90
56300;DHT22;42209;6.376;-10.782;2023-07-22T02:36:33;22.60;84.40
56300;DHT22;42209;6.376;-10.782;2023-07-22T02:39:02;22.70;86.20
56300;DHT22;42209;6.376;-10.782;2023-07-22T02:41:30;22.70;87.20
56300;DHT22;42209;6.376;-10.782;2023-07-22T02:43:58;22.80;88.10
56300;DHT22;42209;6.376;-10.782;2023-07-22T02:46:27;22.90;89.10
56300;DHT22;42209;6.376;-10.782;2023-07-22T02:48:58;22.90;89.70
56300;DHT22;42209;6.376;-10.782;2023-07-22T02:51:26;23.00;90.00
56300;DHT22;42209;6.376;-10.782;2023-07-22T02:53:55;23.00;90.20
56300;DHT22;42209;6.376;-10.782;2023-07-22T02:56:24;23.10;90.50
56300;DHT22;42209;6.376;-10.782;2023-07-22T02:58:54;23.10;90.60
56300;DHT22;42209;6.376;-10.782;2023-07-22T03:01:22;23.20;90.60
56300;DHT22;42209;6.376;-10.782;2023-07-22T03:03:51;23.20;90.70
56300;DHT22;42209;6.376;-10.782;2023-07-22T03:06:31;23.10;84.30
56300;DHT22;42209;6.376;-10.782;2023-07-22T03:09:03;22.70;79.90
56300;DHT22;42209;6.376;-10.782;2023-07-22T03:11:32;22.50;79.90
56300;DHT22;42209;6.376;-10.782;2023-07-22T03:14:01;22.50;84.80
56300;DHT22;42209;6.376;-10.782;2023-07-22T03:16:29;22.70;87.20
56300;DHT22;42209;6.376;-10.782;2023-07-22T03:18:58;22.80;88.50
56300;DHT22;42209;6.376;-10.782;2023-07-22T03:21:27;22.80;89.10
56300;DHT22;42209;6.376;-10.782;2023-07-22T03:23:55;22.90;90.10
56300;DHT22;42209;6.376;-10.782;2023-07-22T03:26:24;23.00;90.40
56300;DHT22;42209;6.376;-10.782;2023-07-22T03:28:53;23.00;90.60
56300;DHT22;42209;6.376;-10.782;2023-07-22T03:31:22;23.10;90.80
56300;DHT22;42209;6.376;-10.782;2023-07-22T03:33:50;23.10;90.90
56300;DHT22;42209;6.376;-10.782;2023-07-22T03:36:19;23.20;91.10
56300;DHT22;42209;6.376;-10.782;2023-07-22T03:38:48;23.20;90.60
56300;DHT22;42209;6.376;-10.782;2023-07-22T03:41:16;22.90;83.70
56300;DHT22;42209;6.376;-10.782;2023-07-22T03:43:45;22.70;79.70
56300;DHT22;42209;6.376;-10.782;2023-07-22T03:46:13;22.50;76.60
56300;DHT22;42209;6.376;-10.782;2023-07-22T03:48:42;22.40;81.30
56300;DHT22;42209;6.376;-10.782;2023-07-22T03:51:10;22.60;85.00
56300;DHT22;42209;6.376;-10.782;2023-07-22T03:53:47;22.70;86.60
56300;DHT22;42209;6.376;-10.782;2023-07-22T03:56:15;22.80;87.90
56300;DHT22;42209;6.376;-10.782;2023-07-22T03:58:44;22.80;88.50
56300;DHT22;42209;6.376;-10.782;2023-07-22T04:01:12;22.90;89.10
56300;DHT22;42209;6.376;-10.782;2023-07-22T04:03:41;23.00;89.90
56300;DHT22;42209;6.376;-10.782;2023-07-22T04:06:10;23.00;90.10
56300;DHT22;42209;6.376;-10.782;2023-07-22T04:08:38;23.00;90.40
56300;DHT22;42209;6.376;-10.782;2023-07-22T04:11:07;23.10;90.60
56300;DHT22;42209;6.376;-10.782;2023-07-22T04:13:35;23.10;90.60
56300;DHT22;42209;6.376;-10.782;2023-07-22T04:16:04;23.20;90.80
56300;DHT22;42209;6.376;-10.782;2023-07-22T04:18:34;23.20;87.70
56300;DHT22;42209;6.376;-10.782;2023-07-22T04:21:03;22.90;82.00
56300;DHT22;42209;6.376;-10.782;2023-07-22T04:23:31;22.60;78.30
56300;DHT22;42209;6.376;-10.782;2023-07-22T04:26:02;22.40;76.30
56300;DHT22;42209;6.376;-10.782;2023-07-22T04:28:31;22.50;81.10
56300;DHT22;42209;6.376;-10.782;2023-07-22T04:31:00;22.50;84.70
56300;DHT22;42209;6.376;-10.782;2023-07-22T04:33:28;22.70;86.20
56300;DHT22;42209;6.376;-10.782;2023-07-22T04:35:59;22.70;87.50
56300;DHT22;42209;6.376;-10.782;2023-07-22T04:38:28;22.80;88.60
56300;DHT22;42209;6.376;-10.782;2023-07-22T04:40:56;22.90;89.20
56300;DHT22;42209;6.376;-10.782;2023-07-22T04:43:24;22.90;89.80
56300;DHT22;42209;6.376;-10.782;2023-07-22T04:45:53;23.00;90.20
56300;DHT22;42209;6.376;-10.782;2023-07-22T04:48:22;23.00;90.50
56300;DHT22;42209;6.376;-10.782;2023-07-22T04:50:51;23.00;90.50
56300;DHT22;42209;6.376;-10.782;2023-07-22T04:53:22;23.10;90.60
56300;DHT22;42209;6.376;-10.782;2023-07-22T04:55:50;23.10;90.90
56300;DHT22;42209;6.376;-10.782;2023-07-22T04:58:19;23.20;88.70
56300;DHT22;42209;6.376;-10.782;2023-07-22T05:00:48;22.80;81.50
56300;DHT22;42209;6.376;-10.782;2023-07-22T05:03:18;22.60;78.50
56300;DHT22;42209;6.376;-10.782;2023-07-22T05:05:47;22.30;76.90
56300;DHT22;42209;6.376;-10.782;2023-07-22T05:08:16;22.40;82.20
56300;DHT22;42209;6.376;-10.782;2023-07-22T05:10:46;22.50;85.40
56300;DHT22;42209;6.376;-10.782;2023-07-22T05:13:14;22.60;86.70
56300;DHT22;42209;6.376;-10.782;2023-07-22T05:15:43;22.70;87.70
56300;DHT22;42209;6.376;-10.782;2023-07-22T05:18:11;22.80;88.60
56300;DHT22;42209;6.376;-10.782;2023-07-22T05:20:40;22.80;89.10
56300;DHT22;42209;6.376;-10.782;2023-07-22T05:23:08;22.90;90.20
56300;DHT22;42209;6.376;-10.782;2023-07-22T05:25:37;22.90;90.40
56300;DHT22;42209;6.376;-10.782;2023-07-22T05:28:06;23.00;90.80
56300;DHT22;42209;6.376;-10.782;2023-07-22T05:30:35;23.00;90.90
56300;DHT22;42209;6.376;-10.782;2023-07-22T05:33:03;23.10;90.90
56300;DHT22;42209;6.376;-10.782;2023-07-22T05:35:32;23.10;90.90
56300;DHT22;42209;6.376;-10.782;2023-07-22T05:38:00;23.20;91.00
56300;DHT22;42209;6.376;-10.782;2023-07-22T05:40:28;22.90;83.70
56300;DHT22;42209;6.376;-10.782;2023-07-22T05:42:57;22.50;79.80
56300;DHT22;42209;6.376;-10.782;2023-07-22T05:45:26;22.40;82.00
56300;DHT22;42209;6.376;-10.782;2023-07-22T05:47:54;22.50;86.50
56300;DHT22;42209;6.376;-10.782;2023-07-22T05:50:23;22.60;88.10
56300;DHT22;42209;6.376;-10.782;2023-07-22T05:52:51;22.70;89.10
56300;DHT22;42209;6.376;-10.782;2023-07-22T05:55:20;22.80;90.10
56300;DHT22;42209;6.376;-10.782;2023-07-22T05:57:48;22.90;90.50
56300;DHT22;42209;6.376;-10.782;2023-07-22T06:00:17;22.90;90.60
56300;DHT22;42209;6.376;-10.782;2023-07-22T06:02:48;23.00;90.80
56300;DHT22;42209;6.376;-10.782;2023-07-22T06:05:17;23.00;91.00
56300;DHT22;42209;6.376;-10.782;2023-07-22T06:07:46;23.10;91.20
56300;DHT22;42209;6.376;-10.782;2023-07-22T06:10:18;23.00;91.20
56300;DHT22;42209;6.376;-10.782;2023-07-22T06:12:46;23.10;91.30
56300;DHT22;42209;6.376;-10.782;2023-07-22T06:15:15;23.10;86.10
56300;DHT22;42209;6.376;-10.782;2023-07-22T06:17:44;22.70;81.90
56300;DHT22;42209;6.376;-10.782;2023-07-22T06:20:12;22.50;78.90
56300;DHT22;42209;6.376;-10.782;2023-07-22T06:22:42;22.50;84.00
56300;DHT22;42209;6.376;-10.782;2023-07-22T06:25:16;22.60;87.20
56300;DHT22;42209;6.376;-10.782;2023-07-22T06:27:46;22.70;88.50
56300;DHT22;42209;6.376;-10.782;2023-07-22T06:30:14;22.80;89.60
56300;DHT22;42209;6.376;-10.782;2023-07-22T06:32:43;22.80;90.30
56300;DHT22;42209;6.376;-10.782;2023-07-22T06:35:12;22.90;90.60
56300;DHT22;42209;6.376;-10.782;2023-07-22T06:37:40;22.90;90.80
56300;DHT22;42209;6.376;-10.782;2023-07-22T06:40:09;23.00;91.10
56300;DHT22;42209;6.376;-10.782;2023-07-22T06:42:38;23.00;91.10
56300;DHT22;42209;6.376;-10.782;2023-07-22T06:45:07;23.00;91.40
56300;DHT22;42209;6.376;-10.782;2023-07-22T06:47:36;23.10;91.30
56300;DHT22;42209;6.376;-10.782;2023-07-22T06:50:05;23.10;91.40
56300;DHT22;42209;6.376;-10.782;2023-07-22T06:52:34;23.20;91.20
56300;DHT22;42209;6.376;-10.782;2023-07-22T06:55:03;23.00;84.90
56300;DHT22;42209;6.376;-10.782;2023-07-22T06:57:33;22.60;81.10
56300;DHT22;42209;6.376;-10.782;2023-07-22T07:01:22;22.50;84.20
56300;DHT22;42209;6.376;-10.782;2023-07-22T07:03:51;22.70;87.00
56300;DHT22;42209;6.376;-10.782;2023-07-22T07:06:20;22.80;88.80
56300;DHT22;42209;6.376;-10.782;2023-07-22T07:08:48;22.80;89.90
56300;DHT22;42209;6.376;-10.782;2023-07-22T07:11:17;22.90;90.30
56300;DHT22;42209;6.376;-10.782;2023-07-22T07:13:45;22.90;90.80
56300;DHT22;42209;6.376;-10.782;2023-07-22T07:16:27;23.00;91.20
56300;DHT22;42209;6.376;-10.782;2023-07-22T07:18:58;23.00;91.40
56300;DHT22;42209;6.376;-10.782;2023-07-22T07:21:27;23.00;91.60
56300;DHT22;42209;6.376;-10.782;2023-07-22T07:23:56;23.10;91.70
56300;DHT22;42209;6.376;-10.782;2023-07-22T07:26:25;23.10;91.80
56300;DHT22;42209;6.376;-10.782;2023-07-22T07:28:55;23.20;92.00
56300;DHT22;42209;6.376;-10.782;2023-07-22T07:31:31;23.20;90.00
56300;DHT22;42209;6.376;-10.782;2023-07-22T07:34:00;22.80;84.10
56300;DHT22;42209;6.376;-10.782;2023-07-22T07:36:28;22.50;81.50
56300;DHT22;42209;6.376;-10.782;2023-07-22T07:38:57;22.50;85.20
56300;DHT22;42209;6.376;-10.782;2023-07-22T07:41:25;22.60;88.40
56300;DHT22;42209;6.376;-10.782;2023-07-22T07:43:54;22.70;89.80
56300;DHT22;42209;6.376;-10.782;2023-07-22T07:46:24;22.80;90.40
56300;DHT22;42209;6.376;-10.782;2023-07-22T07:48:58;22.80;90.60
56300;DHT22;42209;6.376;-10.782;2023-07-22T07:51:29;22.90;90.80
56300;DHT22;42209;6.376;-10.782;2023-07-22T07:54:08;22.90;91.10
56300;DHT22;42209;6.376;-10.782;2023-07-22T07:56:37;23.00;91.40
56300;DHT22;42209;6.376;-10.782;2023-07-22T07:59:06;22.90;91.60
56300;DHT22;42209;6.376;-10.782;2023-07-22T08:01:34;23.10;92.00
56300;DHT22;42209;6.376;-10.782;2023-07-22T08:04:03;23.10;92.20
56300;DHT22;42209;6.376;-10.782;2023-07-22T08:06:32;23.10;92.20
56300;DHT22;42209;6.376;-10.782;2023-07-22T08:09:01;23.20;91.80
56300;DHT22;42209;6.376;-10.782;2023-07-22T08:11:29;22.80;86.50
56300;DHT22;42209;6.376;-10.782;2023-07-22T08:13:58;22.60;83.70
56300;DHT22;42209;6.376;-10.782;2023-07-22T08:16:26;22.40;83.20
56300;DHT22;42209;6.376;-10.782;2023-07-22T08:18:55;22.50;88.50
56300;DHT22;42209;6.376;-10.782;2023-07-22T08:21:25;22.60;90.30
56300;DHT22;42209;6.376;-10.782;2023-07-22T08:23:53;22.80;90.80
56300;DHT22;42209;6.376;-10.782;2023-07-22T08:26:22;22.90;91.20
56300;DHT22;42209;6.376;-10.782;2023-07-22T08:28:51;22.90;91.40
56300;DHT22;42209;6.376;-10.782;2023-07-22T08:31:19;23.00;91.70
56300;DHT22;42209;6.376;-10.782;2023-07-22T08:33:48;23.00;91.70
56300;DHT22;42209;6.376;-10.782;2023-07-22T08:36:16;23.10;91.90
56300;DHT22;42209;6.376;-10.782;2023-07-22T08:38:45;23.10;92.20
56300;DHT22;42209;6.376;-10.782;2023-07-22T08:41:17;23.10;92.20
56300;DHT22;42209;6.376;-10.782;2023-07-22T08:43:46;23.10;92.20
56300;DHT22;42209;6.376;-10.782;2023-07-22T08:46:15;23.20;92.30
56300;DHT22;42209;6.376;-10.782;2023-07-22T08:48:51;23.20;91.90
56300;DHT22;42209;6.376;-10.782;2023-07-22T08:51:20;22.90;86.00
56300;DHT22;42209;6.376;-10.782;2023-07-22T08:53:49;22.50;82.70
56300;DHT22;42209;6.376;-10.782;2023-07-22T08:56:23;22.50;85.30
56300;DHT22;42209;6.376;-10.782;2023-07-22T08:58:53;22.60;90.10
56300;DHT22;42209;6.376;-10.782;2023-07-22T09:01:22;22.70;90.90
56300;DHT22;42209;6.376;-10.782;2023-07-22T09:03:53;22.80;91.40
56300;DHT22;42209;6.376;-10.782;2023-07-22T09:06:22;22.90;91.80
56300;DHT22;42209;6.376;-10.782;2023-07-22T09:08:52;22.90;92.10
56300;DHT22;42209;6.376;-10.782;2023-07-22T09:11:20;23.00;92.40
56300;DHT22;42209;6.376;-10.782;2023-07-22T09:13:49;23.10;92.60
56300;DHT22;42209;6.376;-10.782;2023-07-22T09:16:19;23.10;92.70
56300;DHT22;42209;6.376;-10.782;2023-07-22T09:18:48;23.10;93.00
56300;DHT22;42209;6.376;-10.782;2023-07-22T09:21:17;23.20;93.20
56300;DHT22;42209;6.376;-10.782;2023-07-22T09:23:46;23.20;93.30
56300;DHT22;42209;6.376;-10.782;2023-07-22T09:26:18;23.00;88.90
56300;DHT22;42209;6.376;-10.782;2023-07-22T09:28:52;22.70;84.70
56300;DHT22;42209;6.376;-10.782;2023-07-22T09:31:22;22.50;82.40
56300;DHT22;42209;6.376;-10.782;2023-07-22T09:33:52;22.30;82.40
56300;DHT22;42209;6.376;-10.782;2023-07-22T09:36:23;22.50;87.20
56300;DHT22;42209;6.376;-10.782;2023-07-22T09:39:02;22.60;89.90
56300;DHT22;42209;6.376;-10.782;2023-07-22T09:41:31;22.70;90.70
56300;DHT22;42209;6.376;-10.782;2023-07-22T09:44:06;22.80;91.10
56300;DHT22;42209;6.376;-10.782;2023-07-22T09:46:38;22.90;91.60
56300;DHT22;42209;6.376;-10.782;2023-07-22T09:49:09;22.90;91.80
56300;DHT22;42209;6.376;-10.782;2023-07-22T09:51:41;22.90;92.50
56300;DHT22;42209;6.376;-10.782;2023-07-22T09:54:19;23.00;92.40
56300;DHT22;42209;6.376;-10.782;2023-07-22T09:56:49;23.00;92.70
56300;DHT22;42209;6.376;-10.782;2023-07-22T09:59:21;23.10;92.80
56300;DHT22;42209;6.376;-10.782;2023-07-22T10:01:51;23.10;92.80
56300;DHT22;42209;6.376;-10.782;2023-07-22T10:04:22;23.10;92.90
56300;DHT22;42209;6.376;-10.782;2023-07-22T10:06:53;23.10;93.00
56300;DHT22;42209;6.376;-10.782;2023-07-22T10:09:24;23.20;93.10
56300;DHT22;42209;6.376;-10.782;2023-07-22T10:11:56;23.00;90.30
56300;DHT22;42209;6.376;-10.782;2023-07-22T10:14:24;22.70;85.30
56300;DHT22;42209;6.376;-10.782;2023-07-22T10:16:57;22.50;81.80
56300;DHT22;42209;6.376;-10.782;2023-07-22T10:19:29;22.30;80.90
56300;DHT22;42209;6.376;-10.782;2023-07-22T10:22:08;22.40;86.00
56300;DHT22;42209;6.376;-10.782;2023-07-22T10:24:45;22.60;89.00
56300;DHT22;42209;6.376;-10.782;2023-07-22T10:27:34;22.60;90.00
56300;DHT22;42209;6.376;-10.782;2023-07-22T10:30:05;22.80;90.70
56300;DHT22;42209;6.376;-10.782;2023-07-22T10:32:48;22.80;91.00
56300;DHT22;42209;6.376;-10.782;2023-07-22T10:38:13;22.90;91.80
56300;DHT22;42209;6.376;-10.782;2023-07-22T10:40:54;22.90;92.10
56300;DHT22;42209;6.376;-10.782;2023-07-22T10:43:33;23.00;92.20
56300;DHT22;42209;6.376;-10.782;2023-07-22T10:46:08;23.10;92.20
56300;DHT22;42209;6.376;-10.782;2023-07-22T10:48:39;23.10;92.40
56300;DHT22;42209;6.376;-10.782;2023-07-22T10:51:11;23.10;92.60
56300;DHT22;42209;6.376;-10.782;2023-07-22T10:53:44;23.10;92.70
56300;DHT22;42209;6.376;-10.782;2023-07-22T10:56:20;23.20;92.30
56300;DHT22;42209;6.376;-10.782;2023-07-22T10:58:58;22.90;87.20
56300;DHT22;42209;6.376;-10.782;2023-07-22T11:06:55;22.30;84.30
56300;DHT22;42209;6.376;-10.782;2023-07-22T11:14:50;22.70;90.40
56300;DHT22;42209;6.376;-10.782;2023-07-22T11:17:28;22.80;91.00
56300;DHT22;42209;6.376;-10.782;2023-07-22T11:20:01;22.90;91.30
56300;DHT22;42209;6.376;-10.782;2023-07-22T11:22:30;22.90;91.50
56300;DHT22;42209;6.376;-10.782;2023-07-22T11:25:00;22.90;91.80
56300;DHT22;42209;6.376;-10.782;2023-07-22T11:27:32;22.90;91.90
56300;DHT22;42209;6.376;-10.782;2023-07-22T11:30:02;23.00;92.20
56300;DHT22;42209;6.376;-10.782;2023-07-22T11:32:32;23.00;92.20
56300;DHT22;42209;6.376;-10.782;2023-07-22T11:35:03;23.10;92.40
56300;DHT22;42209;6.376;-10.782;2023-07-22T11:37:34;23.10;92.70
56300;DHT22;42209;6.376;-10.782;2023-07-22T11:40:05;23.10;92.80
56300;DHT22;42209;6.376;-10.782;2023-07-22T11:42:35;22.90;87.10
56300;DHT22;42209;6.376;-10.782;2023-07-22T11:45:06;22.60;84.90
56300;DHT22;42209;6.376;-10.782;2023-07-22T11:47:38;22.40;82.60
56300;DHT22;42209;6.376;-10.782;2023-07-22T11:50:08;22.30;83.30
56300;DHT22;42209;6.376;-10.782;2023-07-22T11:52:40;22.40;88.40
56300;DHT22;42209;6.376;-10.782;2023-07-22T11:55:11;22.60;90.10
56300;DHT22;42209;6.376;-10.782;2023-07-22T11:57:58;22.80;91.90
56300;DHT22;42209;6.376;-10.782;2023-07-22T12:00:27;23.00;91.60
56300;DHT22;42209;6.376;-10.782;2023-07-22T12:05:23;23.10;91.30
56300;DHT22;42209;6.376;-10.782;2023-07-22T12:07:54;23.10;91.50
56300;DHT22;42209;6.376;-10.782;2023-07-22T12:10:24;23.10;91.90
56300;DHT22;42209;6.376;-10.782;2023-07-22T12:12:53;23.10;92.10
56300;DHT22;42209;6.376;-10.782;2023-07-22T12:15:22;23.10;92.40
56300;DHT22;42209;6.376;-10.782;2023-07-22T12:20:30;23.20;92.60
56300;DHT22;42209;6.376;-10.782;2023-07-22T12:22:59;23.20;92.80
56300;DHT22;42209;6.376;-10.782;2023-07-22T12:25:28;23.20;92.80
56300;DHT22;42209;6.376;-10.782;2023-07-22T12:27:56;23.20;93.00
56300;DHT22;42209;6.376;-10.782;2023-07-22T12:30:25;23.10;90.70
56300;DHT22;42209;6.376;-10.782;2023-07-22T12:32:53;22.80;86.10
56300;DHT22;42209;6.376;-10.782;2023-07-22T12:35:22;22.40;84.40
56300;DHT22;42209;6.376;-10.782;2023-07-22T12:37:50;22.50;88.00
56300;DHT22;42209;6.376;-10.782;2023-07-22T12:40:19;22.60;90.60
56300;DHT22;42209;6.376;-10.782;2023-07-22T12:42:47;22.70;91.00
56300;DHT22;42209;6.376;-10.782;2023-07-22T12:45:16;22.80;91.50
56300;DHT22;42209;6.376;-10.782;2023-07-22T12:47:44;22.80;91.80
56300;DHT22;42209;6.376;-10.782;2023-07-22T12:50:13;22.90;92.00
56300;DHT22;42209;6.376;-10.782;2023-07-22T12:52:42;23.00;92.10
56300;DHT22;42209;6.376;-10.782;2023-07-22T12:55:11;23.00;92.40
56300;DHT22;42209;6.376;-10.782;2023-07-22T12:57:39;23.00;92.60
56300;DHT22;42209;6.376;-10.782;2023-07-22T13:00:08;23.10;92.70
56300;DHT22;42209;6.376;-10.782;2023-07-22T13:02:38;23.10;93.00
56300;DHT22;42209;6.376;-10.782;2023-07-22T13:05:07;23.10;93.00
56300;DHT22;42209;6.376;-10.782;2023-07-22T13:07:36;23.20;93.30
56300;DHT22;42209;6.376;-10.782;2023-07-22T13:10:09;23.20;93.20
56300;DHT22;42209;6.376;-10.782;2023-07-22T13:12:44;23.20;91.10
56300;DHT22;42209;6.376;-10.782;2023-07-22T13:15:12;22.80;86.70
56300;DHT22;42209;6.376;-10.782;2023-07-22T13:17:41;22.40;83.40
56300;DHT22;42209;6.376;-10.782;2023-07-22T13:20:10;22.40;87.60
56300;DHT22;42209;6.376;-10.782;2023-07-22T13:22:39;22.50;90.30
56300;DHT22;42209;6.376;-10.782;2023-07-22T13:25:08;22.70;91.00
56300;DHT22;42209;6.376;-10.782;2023-07-22T13:27:36;22.80;91.50
56300;DHT22;42209;6.376;-10.782;2023-07-22T13:30:06;22.80;91.90
56300;DHT22;42209;6.376;-10.782;2023-07-22T13:32:35;22.90;92.40
56300;DHT22;42209;6.376;-10.782;2023-07-22T13:35:07;22.90;92.70
56300;DHT22;42209;6.376;-10.782;2023-07-22T13:37:36;23.00;92.90
56300;DHT22;42209;6.376;-10.782;2023-07-22T13:40:06;23.00;93.00
56300;DHT22;42209;6.376;-10.782;2023-07-22T13:42:43;23.10;93.10
56300;DHT22;42209;6.376;-10.782;2023-07-22T13:45:12;23.10;93.20
56300;DHT22;42209;6.376;-10.782;2023-07-22T13:47:41;23.20;93.40
56300;DHT22;42209;6.376;-10.782;2023-07-22T13:50:10;22.90;89.90
56300;DHT22;42209;6.376;-10.782;2023-07-22T13:52:38;22.60;85.20
56300;DHT22;42209;6.376;-10.782;2023-07-22T13:55:07;22.30;85.70
56300;DHT22;42209;6.376;-10.782;2023-07-22T13:57:36;22.50;90.10
56300;DHT22;42209;6.376;-10.782;2023-07-22T14:00:05;22.60;90.90
56300;DHT22;42209;6.376;-10.782;2023-07-22T14:02:38;22.70;91.40
56300;DHT22;42209;6.376;-10.782;2023-07-22T14:05:07;22.80;91.90
56300;DHT22;42209;6.376;-10.782;2023-07-22T14:07:37;22.90;92.30
56300;DHT22;42209;6.376;-10.782;2023-07-22T14:10:07;22.90;92.60
56300;DHT22;42209;6.376;-10.782;2023-07-22T14:12:36;23.00;92.90
56300;DHT22;42209;6.376;-10.782;2023-07-22T14:15:04;23.00;93.20
56300;DHT22;42209;6.376;-10.782;2023-07-22T14:17:34;23.10;93.30
56300;DHT22;42209;6.376;-10.782;2023-07-22T14:20:04;23.10;93.40
56300;DHT22;42209;6.376;-10.782;2023-07-22T14:22:33;23.10;93.80
56300;DHT22;42209;6.376;-10.782;2023-07-22T14:25:01;23.10;90.90
56300;DHT22;42209;6.376;-10.782;2023-07-22T14:27:30;22.70;88.20
56300;DHT22;42209;6.376;-10.782;2023-07-22T14:29:59;22.50;84.60
56300;DHT22;42209;6.376;-10.782;2023-07-22T14:32:27;22.30;87.70
56300;DHT22;42209;6.376;-10.782;2023-07-22T14:34:55;22.50;90.40
56300;DHT22;42209;6.376;-10.782;2023-07-22T14:37:24;22.60;90.90
56300;DHT22;42209;6.376;-10.782;2023-07-22T14:39:53;22.80;91.50
56300;DHT22;42209;6.376;-10.782;2023-07-22T14:42:21;22.80;91.90
56300;DHT22;42209;6.376;-10.782;2023-07-22T14:44:50;22.90;92.10
56300;DHT22;42209;6.376;-10.782;2023-07-22T14:47:18;22.90;92.30
56300;DHT22;42209;6.376;-10.782;2023-07-22T14:49:46;23.00;92.60
56300;DHT22;42209;6.376;-10.782;2023-07-22T14:52:17;23.00;92.70
56300;DHT22;42209;6.376;-10.782;2023-07-22T14:54:46;23.10;92.90
56300;DHT22;42209;6.376;-10.782;2023-07-22T14:57:14;23.10;92.90
56300;DHT22;42209;6.376;-10.782;2023-07-22T14:59:43;23.10;93.20
56300;DHT22;42209;6.376;-10.782;2023-07-22T15:02:11;23.20;93.20
56300;DHT22;42209;6.376;-10.782;2023-07-22T15:04:40;22.90;88.30
56300;DHT22;42209;6.376;-10.782;2023-07-22T15:07:08;22.60;84.70
56300;DHT22;42209;6.376;-10.782;2023-07-22T15:09:37;22.30;85.40
56300;DHT22;42209;6.376;-10.782;2023-07-22T15:12:05;22.50;90.10
56300;DHT22;42209;6.376;-10.782;2023-07-22T15:14:36;22.60;91.00
56300;DHT22;42209;6.376;-10.782;2023-07-22T15:17:05;22.70;91.50
56300;DHT22;42209;6.376;-10.782;2023-07-22T15:19:33;22.80;91.90
56300;DHT22;42209;6.376;-10.782;2023-07-22T15:22:03;22.90;92.20
56300;DHT22;42209;6.376;-10.782;2023-07-22T15:24:32;23.00;92.50
56300;DHT22;42209;6.376;-10.782;2023-07-22T15:27:00;23.00;92.80
56300;DHT22;42209;6.376;-10.782;2023-07-22T15:29:29;23.10;93.00
56300;DHT22;42209;6.376;-10.782;2023-07-22T15:31:57;23.10;93.20
56300;DHT22;42209;6.376;-10.782;2023-07-22T15:34:28;23.20;93.30
56300;DHT22;42209;6.376;-10.782;2023-07-22T15:36:56;23.20;90.90
56300;DHT22;42209;6.376;-10.782;2023-07-22T15:39:25;22.80;86.20
56300;DHT22;42209;6.376;-10.782;2023-07-22T15:41:53;22.50;82.60
56300;DHT22;42209;6.376;-10.782;2023-07-22T15:44:22;22.40;86.20
56300;DHT22;42209;6.376;-10.782;2023-07-22T15:46:51;22.50;90.00
56300;DHT22;42209;6.376;-10.782;2023-07-22T15:49:20;22.70;90.70